Time;durP1;ratioP1;P1;durP2;ratioP2;P2;SDS_P1;SDS_P2;PMS_P1;PMS_P2;Temp;Humidity;BMP_temperature;BMP_pressure;BME280_temperature;BME280_humidity;BME280_pressure;Samples;Min_cycle;Max_cycle;Signal;HPM_P1;HPM_P2
2022/04/26 03:37:32;;;;;;;;;;;25.80;41.30;;;;;;5076750;28;718;-42
2022/04/26 03:39:59;;;;;;;;;;;25.80;41.30;;;;;;5077067;28;1989;-43
2022/04/26 03:42:26;;;;;;;;;;;25.80;41.30;;;;;;5077699;28;957;-46
2022/04/26 03:44:52;;;;;;;;;;;25.80;41.20;;;;;;5077497;28;1012;-45
2022/04/26 03:47:19;;;;;;;;;;;25.80;41.20;;;;;;5076228;28;1437;-45
2022/04/26 03:49:47;;;;;;;;;;;25.80;41.20;;;;;;5077340;28;1011;-45
2022/04/26 03:52:14;;;;;;;;;;;25.80;41.20;;;;;;5076649;28;932;-45
2022/04/26 03:54:41;;;;;;;;;;;25.80;41.20;;;;;;5077173;28;934;-47
2022/04/26 03:57:08;;;;;;;;;;;25.80;41.20;;;;;;5078325;28;984;-47
2022/04/26 03:59:35;;;;;;;;;;;25.80;41.20;;;;;;5075500;28;952;-44
2022/04/26 04:02:01;;;;;;;;;;;25.80;41.20;;;;;;5075847;28;1906;-43
2022/04/26 04:04:28;;;;;;;;;;;25.80;41.20;;;;;;5075820;28;836;-44
2022/04/26 04:06:56;;;;;;;;;;;25.80;42.30;;;;;;5076881;28;998;-44
2022/04/26 04:09:23;;;;;;;;;;;25.80;41.20;;;;;;5076198;28;1081;-44
2022/04/26 04:11:50;;;;;;;;;;;25.80;41.20;;;;;;5076336;28;1047;-43
2022/04/26 04:14:16;;;;;;;;;;;25.80;41.30;;;;;;5077210;28;873;-43
2022/04/26 04:16:43;;;;;;;;;;;25.80;41.20;;;;;;5077713;28;995;-44
2022/04/26 04:19:19;;;;;;;;;;;25.80;41.20;;;;;;5076928;28;929;-43
2022/04/26 04:21:46;;;;;;;;;;;25.80;41.20;;;;;;5075758;28;1906;-44
2022/04/26 04:24:14;;;;;;;;;;;25.80;41.30;;;;;;5076194;28;996;-42
2022/04/26 04:26:41;;;;;;;;;;;25.80;41.20;;;;;;5077005;28;990;-41
2022/04/26 04:29:08;;;;;;;;;;;25.80;41.30;;;;;;5076899;28;961;-39
2022/04/26 04:31:35;;;;;;;;;;;25.80;41.30;;;;;;5074335;28;960;-44
2022/04/26 04:34:02;;;;;;;;;;;25.80;41.30;;;;;;5075823;28;952;-47
2022/04/26 04:36:29;;;;;;;;;;;25.80;41.20;;;;;;5074432;28;952;-45
2022/04/26 04:38:55;;;;;;;;;;;25.80;41.30;;;;;;5073693;28;957;-45
2022/04/26 04:41:24;;;;;;;;;;;25.80;41.20;;;;;;5075121;28;1882;-45
2022/04/26 04:43:51;;;;;;;;;;;25.80;41.20;;;;;;5076221;28;980;-44
2022/04/26 04:46:18;;;;;;;;;;;25.80;41.20;;;;;;5073741;28;1013;-44
2022/04/26 04:48:44;;;;;;;;;;;25.80;41.20;;;;;;5075416;28;987;-40
2022/04/26 04:51:11;;;;;;;;;;;25.70;41.20;;;;;;5073960;28;940;-41
2022/04/26 04:53:38;;;;;;;;;;;25.80;41.30;;;;;;5073059;28;1002;-42
2022/04/26 04:56:08;;;;;;;;;;;25.70;41.20;;;;;;5070600;28;1016;-42
2022/04/26 04:58:36;;;;;;;;;;;25.70;41.20;;;;;;5072052;28;972;-42
2022/04/26 05:01:03;;;;;;;;;;;25.70;41.30;;;;;;5070812;28;1910;-41
2022/04/26 05:03:30;;;;;;;;;;;25.80;41.40;;;;;;5070339;28;1110;-42
2022/04/26 05:05:57;;;;;;;;;;;25.80;41.30;;;;;;5071335;28;893;-42
2022/04/26 05:08:24;;;;;;;;;;;25.70;41.30;;;;;;5069792;28;932;-42
2022/04/26 05:10:51;;;;;;;;;;;25.70;41.10;;;;;;5069746;28;1003;-42
2022/04/26 05:13:18;;;;;;;;;;;25.70;41.10;;;;;;5068268;28;830;-43
2022/04/26 05:15:46;;;;;;;;;;;25.80;41.20;;;;;;5068547;28;993;-40
2022/04/26 05:18:12;;;;;;;;;;;25.80;41.20;;;;;;5068673;28;976;-41
2022/04/26 05:20:39;;;;;;;;;;;25.80;41.20;;;;;;5066061;28;1980;-45
2022/04/26 05:25:50;;;;;;;;;;;25.70;41.20;;;;;;5063745;28;1003;-46
2022/04/26 05:28:17;;;;;;;;;;;25.70;41.10;;;;;;5065080;28;909;-46
2022/04/26 05:30:44;;;;;;;;;;;25.70;41.20;;;;;;5066059;28;1013;-46
2022/04/26 05:33:12;;;;;;;;;;;25.70;41.20;;;;;;5067759;28;1786;-46
2022/04/26 05:35:39;;;;;;;;;;;25.70;41.20;;;;;;5069971;28;873;-45
2022/04/26 05:38:05;;;;;;;;;;;25.80;41.20;;;;;;5071495;28;1001;-45
2022/04/26 05:40:32;;;;;;;;;;;25.70;41.10;;;;;;5070579;28;1968;-45
2022/04/26 05:42:59;;;;;;;;;;;25.70;41.10;;;;;;5069379;28;1023;-46
2022/04/26 05:45:27;;;;;;;;;;;25.70;41.10;;;;;;5067345;28;1020;-45
2022/04/26 05:47:54;;;;;;;;;;;25.70;41.10;;;;;;5068960;28;981;-46
2022/04/26 05:50:22;;;;;;;;;;;25.70;41.10;;;;;;5068287;28;1017;-46
2022/04/26 05:52:49;;;;;;;;;;;25.70;41.20;;;;;;5069832;28;980;-45
2022/04/26 05:55:16;;;;;;;;;;;25.70;41.00;;;;;;5069466;28;992;-43
2022/04/26 05:57:43;;;;;;;;;;;25.70;41.10;;;;;;5069054;28;2773;-44
2022/04/26 06:00:11;;;;;;;;;;;25.70;41.20;;;;;;5068680;28;981;-43
2022/04/26 06:02:38;;;;;;;;;;;25.70;41.20;;;;;;5067665;28;1983;-43
2022/04/26 06:05:05;;;;;;;;;;;25.70;41.20;;;;;;5066775;28;1007;-43
2022/04/26 06:07:33;;;;;;;;;;;25.70;41.20;;;;;;5069505;28;838;-43
2022/04/26 06:10:01;;;;;;;;;;;25.70;41.20;;;;;;5067484;28;947;-43
2022/04/26 06:12:27;;;;;;;;;;;25.70;41.20;;;;;;5068874;28;969;-43
2022/04/26 06:14:54;;;;;;;;;;;25.70;41.20;;;;;;5067711;28;1790;-43
2022/04/26 06:17:21;;;;;;;;;;;25.70;41.20;;;;;;5067821;28;941;-42
2022/04/26 06:19:48;;;;;;;;;;;25.70;41.20;;;;;;5066023;28;1083;-45
2022/04/26 06:22:15;;;;;;;;;;;25.70;41.30;;;;;;5067076;28;1977;-45
2022/04/26 06:24:43;;;;;;;;;;;25.60;41.30;;;;;;5066717;28;973;-45
2022/04/26 06:27:10;;;;;;;;;;;25.60;41.20;;;;;;5066688;28;960;-45
2022/04/26 06:29:37;;;;;;;;;;;25.60;41.20;;;;;;5067404;28;1015;-45
2022/04/26 06:32:04;;;;;;;;;;;25.70;41.30;;;;;;5066356;28;1035;-45
2022/04/26 06:34:31;;;;;;;;;;;25.60;41.30;;;;;;5066294;28;928;-45
2022/04/26 06:36:57;;;;;;;;;;;25.60;41.30;;;;;;5069023;28;995;-46
2022/04/26 06:39:24;;;;;;;;;;;25.60;41.30;;;;;;5067946;28;1222;-46
2022/04/26 06:41:52;;;;;;;;;;;25.70;41.30;;;;;;5069881;28;1906;-45
2022/04/26 06:44:19;;;;;;;;;;;25.70;41.30;;;;;;5067970;28;949;-41
2022/04/26 06:46:46;;;;;;;;;;;25.60;41.20;;;;;;5069337;28;1009;-42
2022/04/26 06:49:12;;;;;;;;;;;25.70;41.20;;;;;;5068337;28;920;-43
2022/04/26 06:51:42;;;;;;;;;;;25.70;41.20;;;;;;5069041;28;985;-43
2022/04/26 06:54:09;;;;;;;;;;;25.70;41.20;;;;;;5071056;28;1040;-43
2022/04/26 06:56:35;;;;;;;;;;;25.70;41.20;;;;;;5072232;28;924;-44
2022/04/26 06:59:04;;;;;;;;;;;25.70;41.20;;;;;;5073121;28;905;-43
2022/04/26 07:01:30;;;;;;;;;;;25.60;41.10;;;;;;5070833;28;1901;-43
2022/04/26 07:03:57;;;;;;;;;;;25.60;41.00;;;;;;5071175;28;1007;-44
2022/04/26 07:06:24;;;;;;;;;;;25.70;41.20;;;;;;5069566;28;1001;-44
2022/04/26 07:08:50;;;;;;;;;;;25.70;41.20;;;;;;5071865;28;869;-45
2022/04/26 07:11:17;;;;;;;;;;;25.70;41.30;;;;;;5072210;28;861;-47
2022/04/26 07:13:44;;;;;;;;;;;25.60;41.20;;;;;;5071503;28;1047;-45
2022/04/26 07:16:12;;;;;;;;;;;25.60;41.30;;;;;;5070372;28;932;-45
2022/04/26 07:18:38;;;;;;;;;;;25.60;41.20;;;;;;5070656;28;1022;-45
2022/04/26 07:21:05;;;;;;;;;;;25.60;41.20;;;;;;5069901;28;1906;-46
2022/04/26 07:23:32;;;;;;;;;;;25.60;41.30;;;;;;5069705;28;1003;-41
2022/04/26 07:25:59;;;;;;;;;;;25.60;41.20;;;;;;5068931;28;889;-41
2022/04/26 07:28:26;;;;;;;;;;;25.60;41.30;;;;;;5070685;28;949;-42
2022/04/26 07:30:53;;;;;;;;;;;25.60;41.30;;;;;;5071966;28;996;-45
2022/04/26 07:36:06;;;;;;;;;;;25.60;41.40;;;;;;5070976;28;982;-44
2022/04/26 07:38:33;;;;;;;;;;;25.60;41.40;;;;;;5069761;28;1005;-44
2022/04/26 07:41:00;;;;;;;;;;;25.60;41.40;;;;;;5069200;28;2097;-45
2022/04/26 07:43:27;;;;;;;;;;;25.60;41.40;;;;;;5070954;28;902;-44
2022/04/26 07:45:53;;;;;;;;;;;25.60;41.40;;;;;;5070770;28;921;-44
2022/04/26 07:48:22;;;;;;;;;;;25.60;41.40;;;;;;5070693;28;921;-45
2022/04/26 07:50:49;;;;;;;;;;;25.60;41.40;;;;;;5070155;28;971;-44
2022/04/26 07:53:16;;;;;;;;;;;25.60;41.40;;;;;;5069445;28;909;-44
2022/04/26 07:55:43;;;;;;;;;;;25.60;41.40;;;;;;5070040;28;1005;-44
2022/04/26 07:58:11;;;;;;;;;;;25.70;41.40;;;;;;5068372;28;870;-44
2022/04/26 08:00:37;;;;;;;;;;;25.60;41.30;;;;;;5068124;28;1055;-44
2022/04/26 08:03:07;;;;;;;;;;;25.60;41.30;;;;;;5069151;28;1977;-47
2022/04/26 08:05:35;;;;;;;;;;;25.60;41.40;;;;;;5068275;28;905;-46
2022/04/26 08:08:02;;;;;;;;;;;25.60;41.30;;;;;;5068453;28;900;-39
2022/04/26 08:10:29;;;;;;;;;;;25.60;41.30;;;;;;5068686;28;1017;-44
2022/04/26 08:12:55;;;;;;;;;;;25.60;41.30;;;;;;5072849;28;928;-44
2022/04/26 08:15:23;;;;;;;;;;;25.60;41.40;;;;;;5074643;28;1236;-45
2022/04/26 08:17:50;;;;;;;;;;;25.60;41.30;;;;;;5072980;28;948;-43
2022/04/26 08:20:17;;;;;;;;;;;25.60;41.40;;;;;;5071208;28;1085;-44
2022/04/26 08:22:45;;;;;;;;;;;25.60;41.50;;;;;;5071697;28;1906;-45
2022/04/26 08:27:57;;;;;;;;;;;25.60;41.40;;;;;;5067857;28;711;-44
2022/04/26 08:30:24;;;;;;;;;;;25.60;41.50;;;;;;5071324;28;1090;-45
2022/04/26 08:32:50;;;;;;;;;;;25.60;41.50;;;;;;5069318;28;993;-47
2022/04/26 08:35:19;;;;;;;;;;;25.60;41.40;;;;;;5071425;28;925;-46
2022/04/26 08:37:47;;;;;;;;;;;25.60;41.50;;;;;;5070557;28;1057;-45
2022/04/26 08:40:14;;;;;;;;;;;25.60;41.50;;;;;;5073515;28;1410;-39
2022/04/26 08:42:41;;;;;;;;;;;25.60;42.60;;;;;;5072581;28;1906;-41
2022/04/26 08:45:08;;;;;;;;;;;25.60;41.60;;;;;;5069670;28;1085;-43
2022/04/26 08:53:07;;;;;;;;;;;25.60;41.40;;;;;;5068000;28;622;-45
2022/04/26 08:55:35;;;;;;;;;;;25.60;41.40;;;;;;5068304;28;1885;-44
2022/04/26 08:58:01;;;;;;;;;;;25.60;41.40;;;;;;5068398;28;766;-43
2022/04/26 09:00:28;;;;;;;;;;;25.60;41.40;;;;;;5068502;28;973;-44
2022/04/26 09:03:02;;;;;;;;;;;25.60;41.40;;;;;;5069883;28;1890;-44
2022/04/26 09:05:29;;;;;;;;;;;25.60;41.50;;;;;;5067810;28;1003;-44
2022/04/26 09:07:56;;;;;;;;;;;25.60;41.60;;;;;;5067418;28;1024;-45
2022/04/26 09:10:24;;;;;;;;;;;25.60;41.50;;;;;;5068011;28;986;-46
2022/04/26 09:13:04;;;;;;;;;;;25.60;41.40;;;;;;5069657;28;889;-43
2022/04/26 09:15:38;;;;;;;;;;;25.60;41.50;;;;;;5068391;28;940;-44
2022/04/26 09:18:17;;;;;;;;;;;25.60;41.40;;;;;;5066848;28;886;-44
2022/04/26 09:20:44;;;;;;;;;;;25.60;41.40;;;;;;5064039;28;933;-44
2022/04/26 09:23:18;;;;;;;;;;;25.60;41.50;;;;;;5066565;28;1992;-46
2022/04/26 09:25:47;;;;;;;;;;;25.60;41.50;;;;;;5066883;28;1056;-44
2022/04/26 09:28:24;;;;;;;;;;;25.60;41.60;;;;;;5067191;28;851;-46
2022/04/26 09:30:51;;;;;;;;;;;25.60;41.50;;;;;;5067684;28;996;-44
2022/04/26 09:33:36;;;;;;;;;;;25.60;41.50;;;;;;5067371;28;1236;-44
2022/04/26 09:36:04;;;;;;;;;;;25.60;41.50;;;;;;5067944;28;881;-44
2022/04/26 09:38:32;;;;;;;;;;;25.60;41.60;;;;;;5068180;28;1032;-44
2022/04/26 09:41:02;;;;;;;;;;;25.60;41.50;;;;;;5067941;28;1063;-44
2022/04/26 09:43:29;;;;;;;;;;;25.60;41.40;;;;;;5067652;28;1981;-45
2022/04/26 09:45:57;;;;;;;;;;;25.60;41.50;;;;;;5067839;28;1010;-44
2022/04/26 09:48:27;;;;;;;;;;;25.60;41.50;;;;;;5067331;28;1004;-44
2022/04/26 09:50:54;;;;;;;;;;;25.60;41.60;;;;;;5064792;28;1019;-44
2022/04/26 09:53:20;;;;;;;;;;;25.60;41.60;;;;;;5068590;28;997;-44
2022/04/26 09:55:48;;;;;;;;;;;25.60;41.60;;;;;;5066876;28;932;-44
2022/04/26 09:58:18;;;;;;;;;;;25.50;41.60;;;;;;5067589;28;969;-44
2022/04/26 10:00:47;;;;;;;;;;;25.50;41.60;;;;;;5067605;28;951;-44
2022/04/26 10:03:16;;;;;;;;;;;25.60;41.70;;;;;;5066805;28;1983;-44
2022/04/26 10:05:45;;;;;;;;;;;25.60;41.70;;;;;;5066337;28;1009;-45
2022/04/26 10:08:14;;;;;;;;;;;25.60;41.80;;;;;;5064361;28;834;-44
2022/04/26 10:10:41;;;;;;;;;;;25.50;41.60;;;;;;5067434;28;1008;-45
2022/04/26 10:15:54;;;;;;;;;;;25.60;41.70;;;;;;5065907;28;924;-45
2022/04/26 10:18:29;;;;;;;;;;;25.60;41.70;;;;;;5066839;28;885;-47
2022/04/26 10:20:55;;;;;;;;;;;25.60;41.60;;;;;;5068955;28;932;-46
2022/04/26 10:23:22;;;;;;;;;;;25.60;41.60;;;;;;5067396;28;1983;-45
2022/04/26 10:26:07;;;;;;;;;;;25.60;41.60;;;;;;5067544;28;1005;-43
2022/04/26 10:28:49;;;;;;;;;;;25.60;41.60;;;;;;5067425;28;889;-44
2022/04/26 10:31:18;;;;;;;;;;;25.60;41.70;;;;;;5066695;28;976;-43
2022/04/26 10:33:46;;;;;;;;;;;25.50;41.60;;;;;;5066668;28;1040;-43
2022/04/26 10:36:32;;;;;;;;;;;25.50;41.70;;;;;;5066220;28;948;-43
2022/04/26 10:39:31;;;;;;;;;;;25.50;41.80;;;;;;5064537;28;956;-44
2022/04/26 10:41:59;;;;;;;;;;;25.50;41.70;;;;;;4983548;28;1985;-45
2022/04/26 10:44:27;;;;;;;;;;;25.50;41.70;;;;;;4980703;28;869;-45
2022/04/26 10:47:14;;;;;;;;;;;25.60;41.80;;;;;;5000067;28;1023;-46
2022/04/26 10:49:46;;;;;;;;;;;25.60;41.90;;;;;;5023682;28;900;-45
2022/04/26 10:52:27;;;;;;;;;;;25.50;41.90;;;;;;5021305;28;1032;-46
2022/04/26 10:55:03;;;;;;;;;;;25.50;41.80;;;;;;5020259;28;1030;-45
2022/04/26 10:57:31;;;;;;;;;;;25.60;43.10;;;;;;5019953;28;827;-45
2022/04/26 10:59:59;;;;;;;;;;;25.60;41.80;;;;;;5019310;28;1008;-45
2022/04/26 11:02:27;;;;;;;;;;;25.50;41.70;;;;;;5017875;28;1972;-45
2022/04/26 11:04:57;;;;;;;;;;;25.50;41.70;;;;;;5022814;28;1012;-45
2022/04/26 11:07:26;;;;;;;;;;;25.50;41.80;;;;;;5022064;28;940;-47
2022/04/26 11:09:54;;;;;;;;;;;25.60;43.00;;;;;;5019221;28;994;-45
2022/04/26 11:12:22;;;;;;;;;;;25.50;41.80;;;;;;5021654;28;857;-45
2022/04/26 11:14:50;;;;;;;;;;;25.50;42.90;;;;;;5021839;28;992;-45
2022/04/26 11:17:17;;;;;;;;;;;25.50;41.80;;;;;;5021816;28;1075;-45
2022/04/26 11:19:48;;;;;;;;;;;25.60;41.80;;;;;;5017616;28;1056;-46
2022/04/26 11:22:17;;;;;;;;;;;25.60;41.80;;;;;;5021604;28;1910;-46
2022/04/26 11:30:17;;;;;;;;;;;25.60;41.70;;;;;;5024603;28;1052;-46
2022/04/26 11:32:44;;;;;;;;;;;25.60;41.80;;;;;;5022605;28;893;-45
2022/04/26 11:35:11;;;;;;;;;;;25.60;41.80;;;;;;5022898;28;974;-45
2022/04/26 11:37:46;;;;;;;;;;;25.60;41.80;;;;;;5022740;28;1002;-47
2022/04/26 11:40:12;;;;;;;;;;;25.70;41.70;;;;;;5041014;28;1454;-46
2022/04/26 11:42:39;;;;;;;;;;;25.60;41.60;;;;;;5067220;28;1910;-46
2022/04/26 11:45:07;;;;;;;;;;;25.60;41.40;;;;;;5064731;28;993;-46
2022/04/26 11:47:37;;;;;;;;;;;25.60;41.30;;;;;;5066806;28;936;-45
2022/04/26 11:50:08;;;;;;;;;;;25.60;41.40;;;;;;5067524;28;1267;-45
2022/04/26 11:52:35;;;;;;;;;;;25.60;41.30;;;;;;5068166;28;916;-45
2022/04/26 11:55:04;;;;;;;;;;;25.50;41.10;;;;;;5068030;28;1088;-45
2022/04/26 11:57:31;;;;;;;;;;;25.60;41.10;;;;;;5068298;28;1013;-47
2022/04/26 11:59:58;;;;;;;;;;;25.60;41.30;;;;;;5065301;28;1008;-45
2022/04/26 12:02:25;;;;;;;;;;;25.60;41.10;;;;;;5066554;28;1986;-46
2022/04/26 12:04:53;;;;;;;;;;;25.60;41.00;;;;;;5065760;28;1004;-45
2022/04/26 12:07:20;;;;;;;;;;;25.60;41.10;;;;;;5052395;28;823;-45
2022/04/26 12:09:47;;;;;;;;;;;25.60;41.10;;;;;;5066846;28;974;-46
2022/04/26 12:12:15;;;;;;;;;;;25.70;41.10;;;;;;5067292;28;870;-44
2022/04/26 12:14:43;;;;;;;;;;;25.60;41.10;;;;;;5067005;28;929;-45
2022/04/26 12:17:17;;;;;;;;;;;25.60;41.00;;;;;;5067907;28;1035;-46
2022/04/26 12:19:50;;;;;;;;;;;25.60;41.00;;;;;;5068478;28;970;-44
2022/04/26 12:22:17;;;;;;;;;;;25.60;40.90;;;;;;5068007;28;1002;-46
2022/04/26 12:24:48;;;;;;;;;;;25.70;41.00;;;;;;5068763;28;1056;-44
2022/04/26 12:27:17;;;;;;;;;;;25.70;41.00;;;;;;5066983;28;1008;-44
2022/04/26 12:29:44;;;;;;;;;;;25.60;41.00;;;;;;5067251;28;1058;-44
2022/04/26 12:32:12;;;;;;;;;;;25.60;40.90;;;;;;5067799;28;940;-44
2022/04/26 12:34:47;;;;;;;;;;;25.60;40.90;;;;;;5066709;28;877;-44
2022/04/26 12:37:17;;;;;;;;;;;25.70;41.00;;;;;;5067982;28;811;-44
2022/04/26 12:39:45;;;;;;;;;;;25.70;41.00;;;;;;5066815;28;1432;-44
2022/04/26 12:42:13;;;;;;;;;;;25.70;40.80;;;;;;5068156;28;1103;-44
2022/04/26 12:44:51;;;;;;;;;;;25.70;40.80;;;;;;5068775;28;1983;-44
2022/04/26 12:52:50;;;;;;;;;;;25.60;40.70;;;;;;5067527;28;631;-44
2022/04/26 12:55:24;;;;;;;;;;;25.70;40.80;;;;;;5066484;28;999;-44
2022/04/26 12:57:51;;;;;;;;;;;25.60;40.80;;;;;;5067339;28;862;-44
2022/04/26 13:00:21;;;;;;;;;;;25.60;40.90;;;;;;5067228;28;897;-44
2022/04/26 13:02:48;;;;;;;;;;;25.60;40.80;;;;;;5066927;28;1902;-44
2022/04/26 13:05:15;;;;;;;;;;;25.60;40.90;;;;;;5067152;28;1008;-44
2022/04/26 13:07:42;;;;;;;;;;;25.60;41.00;;;;;;5066383;28;1001;-44
2022/04/26 13:10:09;;;;;;;;;;;25.60;40.90;;;;;;5066463;28;1017;-44
2022/04/26 13:12:36;;;;;;;;;;;25.60;40.90;;;;;;5065591;28;1009;-44
2022/04/26 13:15:03;;;;;;;;;;;25.60;40.80;;;;;;5064949;28;1025;-44
2022/04/26 13:17:31;;;;;;;;;;;25.60;40.70;;;;;;5066426;28;1023;-45
2022/04/26 13:19:57;;;;;;;;;;;25.60;40.80;;;;;;5066757;28;876;-44
2022/04/26 13:22:24;;;;;;;;;;;25.60;40.80;;;;;;5067546;28;1118;-45
2022/04/26 13:24:51;;;;;;;;;;;25.70;40.70;;;;;;5066550;28;1909;-44
2022/04/26 13:27:19;;;;;;;;;;;25.70;40.80;;;;;;5067010;28;976;-44
2022/04/26 13:29:46;;;;;;;;;;;25.70;40.80;;;;;;5066931;28;1007;-44
2022/04/26 13:32:13;;;;;;;;;;;25.70;40.80;;;;;;5067032;28;956;-44
2022/04/26 13:34:41;;;;;;;;;;;25.70;40.70;;;;;;5067800;28;949;-45
2022/04/26 13:37:09;;;;;;;;;;;25.70;40.80;;;;;;5066850;28;931;-45
2022/04/26 13:39:36;;;;;;;;;;;25.70;40.80;;;;;;5067231;28;1009;-45
2022/04/26 13:42:02;;;;;;;;;;;25.70;40.90;;;;;;5066873;28;983;-46
2022/04/26 13:44:29;;;;;;;;;;;25.70;40.90;;;;;;5067975;28;1910;-47
2022/04/26 13:46:57;;;;;;;;;;;25.70;40.80;;;;;;5068647;28;1017;-45
2022/04/26 13:49:24;;;;;;;;;;;25.70;40.70;;;;;;5068505;28;1168;-45
2022/04/26 13:51:52;;;;;;;;;;;25.70;40.70;;;;;;5069281;28;944;-45
2022/04/26 13:54:19;;;;;;;;;;;25.70;40.70;;;;;;5068384;28;975;-46
2022/04/26 13:56:49;;;;;;;;;;;25.70;40.80;;;;;;5067690;28;993;-45
2022/04/26 13:59:16;;;;;;;;;;;25.70;40.80;;;;;;5066256;28;881;-45
2022/04/26 14:01:43;;;;;;;;;;;25.70;40.80;;;;;;5065747;28;1773;-45
2022/04/26 14:04:10;;;;;;;;;;;25.70;40.80;;;;;;5064765;28;1975;-45
2022/04/26 14:06:36;;;;;;;;;;;25.70;40.80;;;;;;5067072;28;991;-45
2022/04/26 14:09:04;;;;;;;;;;;25.80;40.90;;;;;;5065074;28;937;-45
2022/04/26 14:11:32;;;;;;;;;;;25.80;40.90;;;;;;5064780;28;1151;-46
2022/04/26 14:22:12;;;;;;;;;;;25.80;40.70;;;;;;5065388;28;694;-45
2022/04/26 14:24:41;;;;;;;;;;;25.80;40.70;;;;;;5065210;28;1902;-45
2022/04/26 14:27:08;;;;;;;;;;;25.80;40.70;;;;;;5066164;28;1023;-45
2022/04/26 14:29:35;;;;;;;;;;;25.80;40.60;;;;;;5064752;28;1007;-45
2022/04/26 14:32:03;;;;;;;;;;;25.80;40.60;;;;;;5066533;28;1002;-45
2022/04/26 14:34:31;;;;;;;;;;;25.80;40.60;;;;;;5066270;28;787;-48
2022/04/26 14:36:59;;;;;;;;;;;25.80;40.70;;;;;;5065420;28;1091;-44
2022/04/26 14:39:26;;;;;;;;;;;25.80;40.60;;;;;;5066827;28;1020;-44
2022/04/26 14:41:54;;;;;;;;;;;25.80;40.70;;;;;;5067234;28;983;-44
2022/04/26 14:44:21;;;;;;;;;;;25.80;40.70;;;;;;5067573;28;1906;-45
2022/04/26 14:46:48;;;;;;;;;;;25.80;40.80;;;;;;5067423;28;1128;-45
2022/04/26 14:49:15;;;;;;;;;;;25.80;41.00;;;;;;5068782;28;1029;-45
2022/04/26 14:51:42;;;;;;;;;;;25.80;40.90;;;;;;5064967;28;998;-46
2022/04/26 14:54:08;;;;;;;;;;;25.80;41.00;;;;;;5066120;28;885;-45
2022/04/26 14:56:35;;;;;;;;;;;25.80;40.80;;;;;;5067149;28;976;-44
2022/04/26 14:59:06;;;;;;;;;;;25.80;40.90;;;;;;5067802;28;989;-45
2022/04/26 15:01:33;;;;;;;;;;;25.90;40.90;;;;;;5068829;28;1029;-45
2022/04/26 15:04:00;;;;;;;;;;;25.90;40.80;;;;;;5068583;28;1981;-44
2022/04/26 15:06:27;;;;;;;;;;;25.90;40.80;;;;;;5067017;28;969;-45
2022/04/26 15:11:37;;;;;;;;;;;26.00;40.70;;;;;;5062026;28;1003;-44
2022/04/26 15:17:01;;;;;;;;;;;26.00;40.60;;;;;;5028986;28;1189;-44
2022/04/26 15:19:28;;;;;;;;;;;26.00;40.50;;;;;;5060671;28;1035;-45
2022/04/26 15:21:55;;;;;;;;;;;26.00;40.50;;;;;;5072748;28;882;-45
2022/04/26 15:24:21;;;;;;;;;;;26.00;40.60;;;;;;5072368;28;1938;-44
2022/04/26 15:26:48;;;;;;;;;;;26.00;40.70;;;;;;5072444;28;1247;-46
2022/04/26 15:29:16;;;;;;;;;;;26.00;40.60;;;;;;5074046;28;944;-44
2022/04/26 15:31:43;;;;;;;;;;;25.90;40.60;;;;;;5073966;28;1014;-45
2022/04/26 15:34:10;;;;;;;;;;;25.90;40.60;;;;;;5073487;28;989;-45
2022/04/26 15:36:37;;;;;;;;;;;25.90;40.60;;;;;;5073902;28;1008;-46
2022/04/26 15:39:03;;;;;;;;;;;25.90;40.60;;;;;;5074538;28;996;-44
2022/04/26 15:41:32;;;;;;;;;;;25.90;40.60;;;;;;5070758;28;1150;-43
2022/04/26 15:44:00;;;;;;;;;;;25.90;40.60;;;;;;5073363;28;1987;-42
2022/04/26 15:46:28;;;;;;;;;;;25.90;40.70;;;;;;5069970;28;1033;-43
2022/04/26 15:48:57;;;;;;;;;;;25.90;40.90;;;;;;5072121;28;985;-44
2022/04/26 15:51:25;;;;;;;;;;;25.90;40.70;;;;;;5069812;28;1042;-44
2022/04/26 15:53:52;;;;;;;;;;;25.90;40.70;;;;;;5070356;28;1031;-45
2022/04/26 15:56:18;;;;;;;;;;;26.00;40.70;;;;;;5071400;28;952;-45
2022/04/26 15:58:45;;;;;;;;;;;25.90;40.80;;;;;;5069564;28;873;-45
2022/04/26 16:01:12;;;;;;;;;;;25.90;40.90;;;;;;5069503;28;1043;-43
2022/04/26 16:03:41;;;;;;;;;;;26.00;41.10;;;;;;5071877;28;1902;-42
2022/04/26 16:06:07;;;;;;;;;;;26.00;41.10;;;;;;5071593;28;981;-42
2022/04/26 16:08:35;;;;;;;;;;;26.00;41.30;;;;;;5071888;28;941;-43
2022/04/26 16:22:03;;;;;;;;;;;25.90;41.90;;;;;;5073745;28;854;-40
2022/04/26 16:24:29;;;;;;;;;;;25.90;42.00;;;;;;5071977;28;1906;-41
2022/04/26 16:26:56;;;;;;;;;;;25.90;41.90;;;;;;5070030;28;1115;-38
2022/04/26 16:29:25;;;;;;;;;;;25.90;41.90;;;;;;5071984;28;1005;-40
2022/04/26 16:31:51;;;;;;;;;;;25.90;42.00;;;;;;5071806;28;872;-41
2022/04/26 16:34:20;;;;;;;;;;;25.90;42.00;;;;;;5072053;28;873;-41
2022/04/26 16:36:47;;;;;;;;;;;25.90;42.00;;;;;;5068588;28;1019;-39
2022/04/26 16:39:14;;;;;;;;;;;25.90;42.00;;;;;;5071102;28;944;-41
2022/04/26 16:41:41;;;;;;;;;;;25.90;41.90;;;;;;5072650;28;1133;-40
2022/04/26 16:44:08;;;;;;;;;;;25.80;42.00;;;;;;5071829;28;1910;-41
2022/04/26 16:46:36;;;;;;;;;;;25.80;42.00;;;;;;5072028;28;1010;-41
2022/04/26 16:49:03;;;;;;;;;;;25.80;42.00;;;;;;5071388;28;988;-38
2022/04/26 16:51:34;;;;;;;;;;;25.80;42.00;;;;;;5072009;28;857;-40
2022/04/26 16:54:01;;;;;;;;;;;25.80;42.00;;;;;;5073571;28;1012;-40
2022/04/26 16:56:27;;;;;;;;;;;25.80;42.10;;;;;;5071959;28;1009;-41
2022/04/26 16:58:54;;;;;;;;;;;25.80;42.10;;;;;;5071163;28;1036;-40
2022/04/26 17:01:21;;;;;;;;;;;25.80;42.10;;;;;;5071949;28;903;-40
2022/04/26 17:03:48;;;;;;;;;;;25.80;42.10;;;;;;5068008;28;1898;-41
2022/04/26 17:06:14;;;;;;;;;;;25.80;42.20;;;;;;5068972;28;1044;-41
2022/04/26 17:08:43;;;;;;;;;;;25.80;42.10;;;;;;5068563;28;1032;-39
2022/04/26 17:13:54;;;;;;;;;;;25.80;42.10;;;;;;5069044;28;661;-41
2022/04/26 17:16:21;;;;;;;;;;;25.80;42.10;;;;;;5070748;28;1020;-40
2022/04/26 17:18:48;;;;;;;;;;;25.80;42.10;;;;;;5072339;28;1016;-41
2022/04/26 17:21:15;;;;;;;;;;;25.80;42.00;;;;;;5071407;28;1008;-41
2022/04/26 17:23:43;;;;;;;;;;;25.80;41.90;;;;;;5071931;28;857;-40
2022/04/26 17:26:10;;;;;;;;;;;25.80;42.00;;;;;;5070417;28;1970;-41
2022/04/26 17:28:37;;;;;;;;;;;25.80;41.90;;;;;;5069953;28;987;-39
2022/04/26 17:31:05;;;;;;;;;;;25.80;41.90;;;;;;5070453;28;977;-40
2022/04/26 17:33:31;;;;;;;;;;;25.80;42.00;;;;;;5072301;28;1001;-42
2022/04/26 17:35:58;;;;;;;;;;;25.80;42.00;;;;;;5072886;28;1031;-41
2022/04/26 17:38:25;;;;;;;;;;;25.80;42.00;;;;;;5070623;28;995;-41
2022/04/26 17:40:53;;;;;;;;;;;25.80;41.90;;;;;;5070516;28;1348;-40
2022/04/26 17:43:20;;;;;;;;;;;25.80;41.90;;;;;;5067204;28;979;-42
2022/04/26 17:45:47;;;;;;;;;;;25.80;42.00;;;;;;5069375;28;1981;-38
2022/04/26 17:48:14;;;;;;;;;;;25.80;41.90;;;;;;5072054;28;941;-40
2022/04/26 17:50:43;;;;;;;;;;;25.70;41.90;;;;;;5070895;28;995;-41
2022/04/26 17:58:40;;;;;;;;;;;25.70;41.90;;;;;;5071309;28;684;-41
2022/04/26 18:01:06;;;;;;;;;;;25.70;41.90;;;;;;5071543;28;1024;-42
2022/04/26 18:03:33;;;;;;;;;;;25.70;42.00;;;;;;5072334;28;1047;-39
2022/04/26 18:06:00;;;;;;;;;;;25.70;41.90;;;;;;5070810;28;1902;-44
2022/04/26 18:08:27;;;;;;;;;;;25.80;41.90;;;;;;5070171;28;1020;-44
2022/04/26 18:10:57;;;;;;;;;;;25.70;41.90;;;;;;5072337;28;1408;-44
2022/04/26 18:13:24;;;;;;;;;;;25.70;42.10;;;;;;5071123;28;957;-44
2022/04/26 18:15:54;;;;;;;;;;;25.70;42.20;;;;;;5070794;28;896;-44
2022/04/26 18:18:21;;;;;;;;;;;25.70;42.20;;;;;;5068796;28;992;-44
2022/04/26 18:20:49;;;;;;;;;;;25.70;42.40;;;;;;5065455;28;1110;-42
2022/04/26 18:23:16;;;;;;;;;;;25.80;42.70;;;;;;5065665;28;873;-44
2022/04/26 18:28:31;;;;;;;;;;;25.70;42.70;;;;;;5068753;28;708;-43
2022/04/26 18:30:58;;;;;;;;;;;25.80;43.00;;;;;;5070457;28;940;-43
2022/04/26 18:33:25;;;;;;;;;;;25.80;43.80;;;;;;5069376;28;989;-43
2022/04/26 18:35:51;;;;;;;;;;;25.70;43.30;;;;;;5070703;28;968;-43
2022/04/26 18:38:21;;;;;;;;;;;25.80;43.10;;;;;;5070863;28;993;-44
2022/04/26 18:40:47;;;;;;;;;;;25.80;42.80;;;;;;5071109;28;1131;-44
2022/04/26 18:43:15;;;;;;;;;;;25.80;43.50;;;;;;5070343;28;1099;-44
2022/04/26 18:45:43;;;;;;;;;;;25.80;44.10;;;;;;5072433;28;1906;-44
2022/04/26 18:48:10;;;;;;;;;;;25.70;43.80;;;;;;5069822;28;1007;-44
2022/04/26 18:50:37;;;;;;;;;;;25.80;44.00;;;;;;5072600;28;1389;-44
2022/04/26 18:53:03;;;;;;;;;;;25.70;43.90;;;;;;5075841;28;928;-43
2022/04/26 18:55:30;;;;;;;;;;;25.70;44.70;;;;;;5073860;28;1042;-43
2022/04/26 18:57:57;;;;;;;;;;;25.70;44.30;;;;;;5074725;28;1023;-44
2022/04/26 19:00:24;;;;;;;;;;;25.70;45.10;;;;;;5073679;28;936;-44
2022/04/26 19:02:52;;;;;;;;;;;25.70;45.30;;;;;;5074249;28;845;-44
2022/04/26 19:05:20;;;;;;;;;;;25.70;45.00;;;;;;5073141;28;1913;-44
2022/04/26 19:07:46;;;;;;;;;;;25.80;45.50;;;;;;5071795;28;996;-44
2022/04/26 19:12:57;;;;;;;;;;;25.70;43.80;;;;;;5073614;28;656;-44
2022/04/26 19:15:24;;;;;;;;;;;25.80;43.10;;;;;;5073998;28;1007;-41
2022/04/26 19:17:52;;;;;;;;;;;25.80;42.50;;;;;;5074498;28;869;-44
2022/04/26 19:20:19;;;;;;;;;;;25.70;42.30;;;;;;5074790;28;1018;-44
2022/04/26 19:22:46;;;;;;;;;;;25.60;42.60;;;;;;5074822;28;1001;-43